sensor_id;sensor_type;location;lat;lon;timestamp;P1;durP1;ratioP1;P2;durP2;ratioP2
40204;SDS011;26963;42.666;23.366;2023-08-08T00:02:14;1.40;;;1.05;;
40204;SDS011;26963;42.666;23.366;2023-08-08T00:04:39;1.10;;;1.00;;
40204;SDS011;26963;42.666;23.366;2023-08-08T00:07:05;2.22;;;1.33;;
40204;SDS011;26963;42.666;23.366;2023-08-08T00:09:31;1.58;;;1.20;;
40204;SDS011;26963;42.666;23.366;2023-08-08T00:11:57;1.63;;;1.20;;
40204;SDS011;26963;42.666;23.366;2023-08-08T00:14:23;1.85;;;1.00;;
40204;SDS011;26963;42.666;23.366;2023-08-08T00:16:49;1.35;;;1.10;;
40204;SDS011;26963;42.666;23.366;2023-08-08T00:19:15;1.50;;;1.38;;
40204;SDS011;26963;42.666;23.366;2023-08-08T00:21:40;1.83;;;1.45;;
40204;SDS011;26963;42.666;23.366;2023-08-08T00:24:06;1.40;;;1.27;;
40204;SDS011;26963;42.666;23.366;2023-08-08T00:26:32;1.88;;;1.50;;
40204;SDS011;26963;42.666;23.366;2023-08-08T00:28:58;2.47;;;1.65;;
40204;SDS011;26963;42.666;23.366;2023-08-08T00:31:23;1.90;;;1.48;;
40204;SDS011;26963;42.666;23.366;2023-08-08T00:33:49;1.75;;;1.30;;
40204;SDS011;26963;42.666;23.366;2023-08-08T00:36:14;1.60;;;1.20;;
40204;SDS011;26963;42.666;23.366;2023-08-08T00:38:40;3.00;;;1.33;;
40204;SDS011;26963;42.666;23.366;2023-08-08T00:41:05;4.57;;;1.88;;
40204;SDS011;26963;42.666;23.366;2023-08-08T00:43:31;1.92;;;1.10;;
40204;SDS011;26963;42.666;23.366;2023-08-08T00:45:56;1.83;;;1.10;;
40204;SDS011;26963;42.666;23.366;2023-08-08T00:48:23;1.10;;;0.98;;
40204;SDS011;26963;42.666;23.366;2023-08-08T00:50:48;1.73;;;1.23;;
40204;SDS011;26963;42.666;23.366;2023-08-08T00:53:15;3.25;;;1.40;;
40204;SDS011;26963;42.666;23.366;2023-08-08T00:55:42;1.70;;;1.60;;
40204;SDS011;26963;42.666;23.366;2023-08-08T00:58:07;1.33;;;1.20;;
40204;SDS011;26963;42.666;23.366;2023-08-08T01:00:33;2.10;;;1.80;;
40204;SDS011;26963;42.666;23.366;2023-08-08T01:02:58;2.35;;;1.75;;
40204;SDS011;26963;42.666;23.366;2023-08-08T01:05:24;2.72;;;1.48;;
40204;SDS011;26963;42.666;23.366;2023-08-08T01:07:57;2.20;;;1.67;;
40204;SDS011;26963;42.666;23.366;2023-08-08T01:10:29;3.42;;;1.42;;
40204;SDS011;26963;42.666;23.366;2023-08-08T01:12:59;2.30;;;1.70;;
40204;SDS011;26963;42.666;23.366;2023-08-08T01:15:27;2.00;;;1.42;;
40204;SDS011;26963;42.666;23.366;2023-08-08T01:17:57;1.20;;;1.10;;
40204;SDS011;26963;42.666;23.366;2023-08-08T01:20:23;1.48;;;1.00;;
40204;SDS011;26963;42.666;23.366;2023-08-08T01:25:40;0.90;;;0.90;;
40204;SDS011;26963;42.666;23.366;2023-08-08T01:28:06;0.80;;;0.80;;
40204;SDS011;26963;42.666;23.366;2023-08-08T01:30:32;2.85;;;1.30;;
40204;SDS011;26963;42.666;23.366;2023-08-08T01:32:58;2.13;;;1.10;;
40204;SDS011;26963;42.666;23.366;2023-08-08T01:35:25;1.42;;;1.30;;
40204;SDS011;26963;42.666;23.366;2023-08-08T01:37:54;6.47;;;4.82;;
40204;SDS011;26963;42.666;23.366;2023-08-08T01:40:26;4.68;;;3.30;;
40204;SDS011;26963;42.666;23.366;2023-08-08T01:42:54;3.45;;;2.53;;
40204;SDS011;26963;42.666;23.366;2023-08-08T01:45:21;1.70;;;1.60;;
40204;SDS011;26963;42.666;23.366;2023-08-08T01:47:50;4.07;;;2.45;;
40204;SDS011;26963;42.666;23.366;2023-08-08T01:50:16;3.85;;;1.73;;
40204;SDS011;26963;42.666;23.366;2023-08-08T01:52:42;2.78;;;1.70;;
40204;SDS011;26963;42.666;23.366;2023-08-08T01:55:08;5.97;;;1.50;;
40204;SDS011;26963;42.666;23.366;2023-08-08T01:57:34;2.15;;;1.40;;
40204;SDS011;26963;42.666;23.366;2023-08-08T01:59:59;2.53;;;1.67;;
40204;SDS011;26963;42.666;23.366;2023-08-08T02:02:25;2.72;;;1.40;;
40204;SDS011;26963;42.666;23.366;2023-08-08T02:04:50;2.25;;;1.60;;
40204;SDS011;26963;42.666;23.366;2023-08-08T02:07:16;1.77;;;1.38;;
40204;SDS011;26963;42.666;23.366;2023-08-08T02:09:42;2.40;;;1.25;;
40204;SDS011;26963;42.666;23.366;2023-08-08T02:12:07;1.40;;;1.30;;
40204;SDS011;26963;42.666;23.366;2023-08-08T02:14:33;2.15;;;1.33;;
40204;SDS011;26963;42.666;23.366;2023-08-08T02:16:58;5.90;;;1.35;;
40204;SDS011;26963;42.666;23.366;2023-08-08T02:19:24;2.10;;;1.42;;
40204;SDS011;26963;42.666;23.366;2023-08-08T02:21:50;2.28;;;1.35;;
40204;SDS011;26963;42.666;23.366;2023-08-08T02:24:15;2.00;;;1.30;;
40204;SDS011;26963;42.666;23.366;2023-08-08T02:26:41;3.65;;;1.50;;
40204;SDS011;26963;42.666;23.366;2023-08-08T02:29:07;1.73;;;1.23;;
40204;SDS011;26963;42.666;23.366;2023-08-08T02:31:32;3.80;;;1.35;;
40204;SDS011;26963;42.666;23.366;2023-08-08T02:33:58;1.30;;;1.17;;
40204;SDS011;26963;42.666;23.366;2023-08-08T02:36:23;1.60;;;1.45;;
40204;SDS011;26963;42.666;23.366;2023-08-08T02:38:49;1.38;;;1.25;;
40204;SDS011;26963;42.666;23.366;2023-08-08T02:41:18;1.77;;;1.20;;
40204;SDS011;26963;42.666;23.366;2023-08-08T02:43:44;1.73;;;1.30;;
40204;SDS011;26963;42.666;23.366;2023-08-08T02:46:10;1.63;;;1.27;;
40204;SDS011;26963;42.666;23.366;2023-08-08T02:48:36;3.85;;;1.45;;
40204;SDS011;26963;42.666;23.366;2023-08-08T02:51:01;1.42;;;1.30;;
40204;SDS011;26963;42.666;23.366;2023-08-08T02:53:27;3.20;;;1.30;;
40204;SDS011;26963;42.666;23.366;2023-08-08T02:55:52;1.92;;;1.10;;
40204;SDS011;26963;42.666;23.366;2023-08-08T02:58:18;3.05;;;1.25;;
40204;SDS011;26963;42.666;23.366;2023-08-08T03:00:43;1.55;;;1.27;;
40204;SDS011;26963;42.666;23.366;2023-08-08T03:03:09;1.92;;;1.55;;
40204;SDS011;26963;42.666;23.366;2023-08-08T03:05:34;4.57;;;1.50;;
40204;SDS011;26963;42.666;23.366;2023-08-08T03:08:00;2.28;;;1.60;;
40204;SDS011;26963;42.666;23.366;2023-08-08T03:10:25;2.83;;;1.65;;
40204;SDS011;26963;42.666;23.366;2023-08-08T03:12:51;3.55;;;1.50;;
40204;SDS011;26963;42.666;23.366;2023-08-08T03:15:16;2.33;;;1.40;;
40204;SDS011;26963;42.666;23.366;2023-08-08T03:17:42;3.97;;;1.50;;
40204;SDS011;26963;42.666;23.366;2023-08-08T03:20:08;3.22;;;1.70;;
40204;SDS011;26963;42.666;23.366;2023-08-08T03:22:34;4.13;;;1.73;;
40204;SDS011;26963;42.666;23.366;2023-08-08T03:25:00;2.33;;;1.50;;
40204;SDS011;26963;42.666;23.366;2023-08-08T03:27:25;3.72;;;2.10;;
40204;SDS011;26963;42.666;23.366;2023-08-08T03:29:51;12.57;;;2.10;;
40204;SDS011;26963;42.666;23.366;2023-08-08T03:32:17;2.88;;;1.80;;
40204;SDS011;26963;42.666;23.366;2023-08-08T03:34:42;3.70;;;1.60;;
40204;SDS011;26963;42.666;23.366;2023-08-08T03:37:08;3.00;;;2.15;;
40204;SDS011;26963;42.666;23.366;2023-08-08T03:39:33;3.25;;;2.38;;
40204;SDS011;26963;42.666;23.366;2023-08-08T03:41:59;3.40;;;1.90;;
40204;SDS011;26963;42.666;23.366;2023-08-08T03:44:24;2.17;;;1.88;;
40204;SDS011;26963;42.666;23.366;2023-08-08T03:46:50;7.50;;;6.18;;
40204;SDS011;26963;42.666;23.366;2023-08-08T03:49:16;2.72;;;2.33;;
40204;SDS011;26963;42.666;23.366;2023-08-08T03:51:41;3.00;;;2.60;;
40204;SDS011;26963;42.666;23.366;2023-08-08T03:54:07;3.88;;;2.63;;
40204;SDS011;26963;42.666;23.366;2023-08-08T03:56:33;4.65;;;2.70;;
40204;SDS011;26963;42.666;23.366;2023-08-08T03:58:58;4.00;;;3.20;;
40204;SDS011;26963;42.666;23.366;2023-08-08T04:01:24;5.75;;;4.30;;
40204;SDS011;26963;42.666;23.366;2023-08-08T04:03:50;5.50;;;2.50;;
40204;SDS011;26963;42.666;23.366;2023-08-08T04:06:15;3.97;;;3.20;;
40204;SDS011;26963;42.666;23.366;2023-08-08T04:08:41;5.05;;;3.25;;
40204;SDS011;26963;42.666;23.366;2023-08-08T04:11:06;6.43;;;3.10;;
40204;SDS011;26963;42.666;23.366;2023-08-08T04:13:32;4.85;;;2.30;;
40204;SDS011;26963;42.666;23.366;2023-08-08T04:15:57;5.15;;;3.00;;
40204;SDS011;26963;42.666;23.366;2023-08-08T04:18:23;4.88;;;2.80;;
40204;SDS011;26963;42.666;23.366;2023-08-08T04:20:48;7.90;;;4.22;;
40204;SDS011;26963;42.666;23.366;2023-08-08T04:23:14;6.90;;;4.03;;
40204;SDS011;26963;42.666;23.366;2023-08-08T04:25:40;6.15;;;3.45;;
40204;SDS011;26963;42.666;23.366;2023-08-08T04:28:05;6.78;;;3.13;;
40204;SDS011;26963;42.666;23.366;2023-08-08T04:30:31;4.25;;;3.35;;
40204;SDS011;26963;42.666;23.366;2023-08-08T04:32:56;6.35;;;4.20;;
40204;SDS011;26963;42.666;23.366;2023-08-08T04:35:22;5.20;;;4.32;;
40204;SDS011;26963;42.666;23.366;2023-08-08T04:37:48;5.93;;;3.85;;
40204;SDS011;26963;42.666;23.366;2023-08-08T04:40:13;5.97;;;4.90;;
40204;SDS011;26963;42.666;23.366;2023-08-08T04:42:39;7.28;;;4.93;;
40204;SDS011;26963;42.666;23.366;2023-08-08T04:45:05;4.28;;;3.70;;
40204;SDS011;26963;42.666;23.366;2023-08-08T04:47:31;3.75;;;3.28;;
40204;SDS011;26963;42.666;23.366;2023-08-08T04:49:57;7.50;;;3.13;;
40204;SDS011;26963;42.666;23.366;2023-08-08T04:52:22;7.40;;;4.00;;
40204;SDS011;26963;42.666;23.366;2023-08-08T04:54:48;12.18;;;8.40;;
40204;SDS011;26963;42.666;23.366;2023-08-08T04:57:13;7.35;;;6.25;;
40204;SDS011;26963;42.666;23.366;2023-08-08T04:59:39;5.50;;;4.55;;
40204;SDS011;26963;42.666;23.366;2023-08-08T05:02:05;8.50;;;5.47;;
40204;SDS011;26963;42.666;23.366;2023-08-08T05:04:30;11.18;;;9.98;;
40204;SDS011;26963;42.666;23.366;2023-08-08T05:06:56;8.93;;;5.60;;
40204;SDS011;26963;42.666;23.366;2023-08-08T05:09:22;8.38;;;5.88;;
40204;SDS011;26963;42.666;23.366;2023-08-08T05:11:51;11.68;;;7.15;;
40204;SDS011;26963;42.666;23.366;2023-08-08T05:14:18;10.63;;;7.45;;
40204;SDS011;26963;42.666;23.366;2023-08-08T05:16:44;9.60;;;7.65;;
40204;SDS011;26963;42.666;23.366;2023-08-08T05:19:09;9.18;;;7.43;;
40204;SDS011;26963;42.666;23.366;2023-08-08T05:21:35;17.63;;;7.15;;
40204;SDS011;26963;42.666;23.366;2023-08-08T05:24:00;9.60;;;4.43;;
40204;SDS011;26963;42.666;23.366;2023-08-08T05:26:26;7.45;;;4.40;;
40204;SDS011;26963;42.666;23.366;2023-08-08T05:28:51;7.00;;;5.18;;
40204;SDS011;26963;42.666;23.366;2023-08-08T05:31:17;7.82;;;4.82;;
40204;SDS011;26963;42.666;23.366;2023-08-08T05:33:43;7.75;;;3.80;;
40204;SDS011;26963;42.666;23.366;2023-08-08T05:36:08;8.07;;;5.28;;
40204;SDS011;26963;42.666;23.366;2023-08-08T05:38:34;8.45;;;5.28;;
40204;SDS011;26963;42.666;23.366;2023-08-08T05:40:59;16.65;;;10.02;;
40204;SDS011;26963;42.666;23.366;2023-08-08T05:43:25;8.15;;;4.40;;
40204;SDS011;26963;42.666;23.366;2023-08-08T05:45:52;6.45;;;5.15;;
40204;SDS011;26963;42.666;23.366;2023-08-08T05:48:18;10.93;;;3.97;;
40204;SDS011;26963;42.666;23.366;2023-08-08T05:50:44;4.55;;;3.30;;
40204;SDS011;26963;42.666;23.366;2023-08-08T05:53:09;5.95;;;2.83;;
40204;SDS011;26963;42.666;23.366;2023-08-08T05:55:35;5.28;;;3.92;;
40204;SDS011;26963;42.666;23.366;2023-08-08T05:58:00;4.78;;;2.88;;
40204;SDS011;26963;42.666;23.366;2023-08-08T06:00:26;5.32;;;3.78;;
40204;SDS011;26963;42.666;23.366;2023-08-08T06:02:51;9.40;;;5.03;;
40204;SDS011;26963;42.666;23.366;2023-08-08T06:05:17;3.35;;;2.22;;
40204;SDS011;26963;42.666;23.366;2023-08-08T06:07:43;5.75;;;2.90;;
40204;SDS011;26963;42.666;23.366;2023-08-08T06:10:09;3.67;;;2.50;;
40204;SDS011;26963;42.666;23.366;2023-08-08T06:12:35;4.28;;;2.63;;
40204;SDS011;26963;42.666;23.366;2023-08-08T06:15:01;4.78;;;2.30;;
40204;SDS011;26963;42.666;23.366;2023-08-08T06:17:26;3.85;;;3.00;;
40204;SDS011;26963;42.666;23.366;2023-08-08T06:19:52;9.93;;;6.65;;
40204;SDS011;26963;42.666;23.366;2023-08-08T06:22:19;5.30;;;2.80;;
40204;SDS011;26963;42.666;23.366;2023-08-08T06:24:45;4.32;;;2.70;;
40204;SDS011;26963;42.666;23.366;2023-08-08T06:27:12;5.97;;;3.10;;
40204;SDS011;26963;42.666;23.366;2023-08-08T06:29:38;3.47;;;2.80;;
40204;SDS011;26963;42.666;23.366;2023-08-08T06:32:03;5.47;;;2.70;;
40204;SDS011;26963;42.666;23.366;2023-08-08T06:34:29;3.47;;;2.40;;
40204;SDS011;26963;42.666;23.366;2023-08-08T06:36:55;2.97;;;2.42;;
40204;SDS011;26963;42.666;23.366;2023-08-08T06:39:20;3.75;;;2.42;;
40204;SDS011;26963;42.666;23.366;2023-08-08T06:41:47;3.70;;;1.77;;
40204;SDS011;26963;42.666;23.366;2023-08-08T06:44:12;2.25;;;2.00;;
40204;SDS011;26963;42.666;23.366;2023-08-08T06:46:38;3.05;;;2.30;;
40204;SDS011;26963;42.666;23.366;2023-08-08T06:49:04;3.30;;;2.42;;
40204;SDS011;26963;42.666;23.366;2023-08-08T06:51:29;3.00;;;2.30;;
40204;SDS011;26963;42.666;23.366;2023-08-08T06:53:55;4.20;;;1.92;;
40204;SDS011;26963;42.666;23.366;2023-08-08T06:56:21;2.75;;;2.00;;
40204;SDS011;26963;42.666;23.366;2023-08-08T06:58:46;5.93;;;1.98;;
40204;SDS011;26963;42.666;23.366;2023-08-08T07:01:13;2.90;;;2.28;;
40204;SDS011;26963;42.666;23.366;2023-08-08T07:03:39;6.93;;;3.65;;
40204;SDS011;26963;42.666;23.366;2023-08-08T07:06:04;5.68;;;3.97;;
40204;SDS011;26963;42.666;23.366;2023-08-08T07:08:31;4.85;;;2.38;;
40204;SDS011;26963;42.666;23.366;2023-08-08T07:10:57;4.75;;;3.10;;
40204;SDS011;26963;42.666;23.366;2023-08-08T07:13:23;2.90;;;2.00;;
40204;SDS011;26963;42.666;23.366;2023-08-08T07:15:48;2.20;;;1.63;;
40204;SDS011;26963;42.666;23.366;2023-08-08T07:18:14;2.08;;;1.70;;
40204;SDS011;26963;42.666;23.366;2023-08-08T07:20:40;1.77;;;1.67;;
40204;SDS011;26963;42.666;23.366;2023-08-08T07:23:06;4.20;;;3.28;;
40204;SDS011;26963;42.666;23.366;2023-08-08T07:25:31;3.95;;;3.30;;
40204;SDS011;26963;42.666;23.366;2023-08-08T07:27:57;3.95;;;2.20;;
40204;SDS011;26963;42.666;23.366;2023-08-08T07:30:23;5.55;;;3.97;;
40204;SDS011;26963;42.666;23.366;2023-08-08T07:32:49;4.45;;;4.05;;
40204;SDS011;26963;42.666;23.366;2023-08-08T07:35:14;4.07;;;2.47;;
40204;SDS011;26963;42.666;23.366;2023-08-08T07:37:40;3.78;;;3.10;;
40204;SDS011;26963;42.666;23.366;2023-08-08T07:40:19;4.20;;;2.20;;
40204;SDS011;26963;42.666;23.366;2023-08-08T07:42:48;3.33;;;2.10;;
40204;SDS011;26963;42.666;23.366;2023-08-08T07:45:14;4.07;;;3.33;;
40204;SDS011;26963;42.666;23.366;2023-08-08T07:47:40;1.67;;;1.58;;
40204;SDS011;26963;42.666;23.366;2023-08-08T07:50:06;2.47;;;1.90;;
40204;SDS011;26963;42.666;23.366;2023-08-08T07:52:36;2.33;;;1.80;;
40204;SDS011;26963;42.666;23.366;2023-08-08T07:55:03;2.55;;;1.60;;
40204;SDS011;26963;42.666;23.366;2023-08-08T07:57:29;2.70;;;1.58;;
40204;SDS011;26963;42.666;23.366;2023-08-08T08:00:00;2.15;;;1.30;;
40204;SDS011;26963;42.666;23.366;2023-08-08T08:02:32;2.83;;;1.70;;
40204;SDS011;26963;42.666;23.366;2023-08-08T08:04:57;3.78;;;1.70;;
40204;SDS011;26963;42.666;23.366;2023-08-08T08:07:23;3.60;;;1.70;;
40204;SDS011;26963;42.666;23.366;2023-08-08T08:09:49;2.85;;;1.55;;
40204;SDS011;26963;42.666;23.366;2023-08-08T08:12:14;3.22;;;1.50;;
40204;SDS011;26963;42.666;23.366;2023-08-08T08:14:40;1.25;;;1.15;;
40204;SDS011;26963;42.666;23.366;2023-08-08T08:17:05;1.90;;;1.40;;
40204;SDS011;26963;42.666;23.366;2023-08-08T08:19:31;1.85;;;1.65;;
40204;SDS011;26963;42.666;23.366;2023-08-08T08:21:56;3.10;;;1.58;;
40204;SDS011;26963;42.666;23.366;2023-08-08T08:24:22;2.72;;;1.85;;
40204;SDS011;26963;42.666;23.366;2023-08-08T08:26:48;5.05;;;3.00;;
40204;SDS011;26963;42.666;23.366;2023-08-08T08:29:14;5.60;;;3.10;;
40204;SDS011;26963;42.666;23.366;2023-08-08T08:31:39;4.00;;;3.35;;
40204;SDS011;26963;42.666;23.366;2023-08-08T08:34:05;5.93;;;4.03;;
40204;SDS011;26963;42.666;23.366;2023-08-08T08:36:30;3.47;;;2.40;;
40204;SDS011;26963;42.666;23.366;2023-08-08T08:38:56;2.20;;;1.77;;
40204;SDS011;26963;42.666;23.366;2023-08-08T08:41:25;3.55;;;3.00;;
40204;SDS011;26963;42.666;23.366;2023-08-08T08:43:53;5.88;;;2.80;;
40204;SDS011;26963;42.666;23.366;2023-08-08T08:46:20;2.08;;;1.50;;
40204;SDS011;26963;42.666;23.366;2023-08-08T08:48:49;3.28;;;1.83;;
40204;SDS011;26963;42.666;23.366;2023-08-08T08:51:17;2.97;;;2.00;;
40204;SDS011;26963;42.666;23.366;2023-08-08T08:53:44;2.83;;;1.63;;
40204;SDS011;26963;42.666;23.366;2023-08-08T08:56:12;1.80;;;1.70;;
40204;SDS011;26963;42.666;23.366;2023-08-08T08:58:42;3.95;;;1.75;;
40204;SDS011;26963;42.666;23.366;2023-08-08T09:01:08;2.63;;;1.95;;
40204;SDS011;26963;42.666;23.366;2023-08-08T09:03:35;1.60;;;1.50;;
40204;SDS011;26963;42.666;23.366;2023-08-08T09:06:02;3.13;;;1.77;;
40204;SDS011;26963;42.666;23.366;2023-08-08T09:08:28;3.13;;;1.52;;
40204;SDS011;26963;42.666;23.366;2023-08-08T09:10:54;3.72;;;1.38;;
40204;SDS011;26963;42.666;23.366;2023-08-08T09:13:21;3.13;;;1.90;;
40204;SDS011;26963;42.666;23.366;2023-08-08T09:15:48;3.90;;;2.00;;
40204;SDS011;26963;42.666;23.366;2023-08-08T09:18:16;4.53;;;2.55;;
40204;SDS011;26963;42.666;23.366;2023-08-08T09:20:46;6.95;;;2.42;;
40204;SDS011;26963;42.666;23.366;2023-08-08T09:23:14;3.88;;;1.73;;
40204;SDS011;26963;42.666;23.366;2023-08-08T09:25:41;5.93;;;2.00;;
40204;SDS011;26963;42.666;23.366;2023-08-08T09:28:06;2.35;;;1.63;;
40204;SDS011;26963;42.666;23.366;2023-08-08T09:30:32;2.60;;;1.92;;
40204;SDS011;26963;42.666;23.366;2023-08-08T09:32:59;7.15;;;5.95;;
40204;SDS011;26963;42.666;23.366;2023-08-08T09:35:26;4.05;;;2.03;;
40204;SDS011;26963;42.666;23.366;2023-08-08T09:37:54;3.58;;;2.50;;
40204;SDS011;26963;42.666;23.366;2023-08-08T09:40:20;2.45;;;2.10;;
40204;SDS011;26963;42.666;23.366;2023-08-08T09:42:46;2.92;;;2.15;;
40204;SDS011;26963;42.666;23.366;2023-08-08T09:45:14;3.97;;;2.58;;
40204;SDS011;26963;42.666;23.366;2023-08-08T09:47:39;1.73;;;1.60;;
40204;SDS011;26963;42.666;23.366;2023-08-08T09:50:05;2.00;;;1.73;;
40204;SDS011;26963;42.666;23.366;2023-08-08T09:52:31;2.60;;;1.50;;
40204;SDS011;26963;42.666;23.366;2023-08-08T09:54:59;2.80;;;2.10;;
40204;SDS011;26963;42.666;23.366;2023-08-08T09:57:25;3.47;;;3.08;;
40204;SDS011;26963;42.666;23.366;2023-08-08T09:59:51;3.22;;;2.63;;
40204;SDS011;26963;42.666;23.366;2023-08-08T10:02:17;3.15;;;2.50;;
40204;SDS011;26963;42.666;23.366;2023-08-08T10:04:46;4.07;;;3.20;;
40204;SDS011;26963;42.666;23.366;2023-08-08T10:07:13;4.07;;;2.10;;
40204;SDS011;26963;42.666;23.366;2023-08-08T10:09:39;3.15;;;1.90;;
40204;SDS011;26963;42.666;23.366;2023-08-08T10:12:05;3.47;;;2.50;;
40204;SDS011;26963;42.666;23.366;2023-08-08T10:14:32;1.77;;;1.67;;
40204;SDS011;26963;42.666;23.366;2023-08-08T10:17:18;4.22;;;2.63;;
40204;SDS011;26963;42.666;23.366;2023-08-08T10:19:51;3.50;;;2.00;;
40204;SDS011;26963;42.666;23.366;2023-08-08T10:22:22;3.75;;;2.28;;
40204;SDS011;26963;42.666;23.366;2023-08-08T10:24:52;4.30;;;2.20;;
40204;SDS011;26963;42.666;23.366;2023-08-08T10:27:35;3.13;;;1.73;;
40204;SDS011;26963;42.666;23.366;2023-08-08T10:30:10;2.90;;;1.60;;
40204;SDS011;26963;42.666;23.366;2023-08-08T10:32:44;3.55;;;1.80;;
40204;SDS011;26963;42.666;23.366;2023-08-08T10:35:14;2.20;;;2.00;;
40204;SDS011;26963;42.666;23.366;2023-08-08T10:37:40;3.03;;;1.75;;
40204;SDS011;26963;42.666;23.366;2023-08-08T10:40:06;4.65;;;2.47;;
40204;SDS011;26963;42.666;23.366;2023-08-08T10:42:33;2.20;;;2.00;;
40204;SDS011;26963;42.666;23.366;2023-08-08T10:45:10;3.15;;;2.35;;
40204;SDS011;26963;42.666;23.366;2023-08-08T10:47:39;4.38;;;3.13;;
40204;SDS011;26963;42.666;23.366;2023-08-08T10:50:06;3.38;;;2.22;;
40204;SDS011;26963;42.666;23.366;2023-08-08T10:55:18;2.75;;;2.10;;
40204;SDS011;26963;42.666;23.366;2023-08-08T11:00:26;2.42;;;1.90;;
40204;SDS011;26963;42.666;23.366;2023-08-08T11:02:54;3.15;;;1.73;;
40204;SDS011;26963;42.666;23.366;2023-08-08T11:05:23;5.28;;;2.28;;
40204;SDS011;26963;42.666;23.366;2023-08-08T11:07:49;4.38;;;1.88;;
40204;SDS011;26963;42.666;23.366;2023-08-08T11:10:16;5.32;;;1.90;;
40204;SDS011;26963;42.666;23.366;2023-08-08T11:12:42;2.30;;;1.60;;
40204;SDS011;26963;42.666;23.366;2023-08-08T11:15:16;3.13;;;1.77;;
40204;SDS011;26963;42.666;23.366;2023-08-08T11:17:42;3.65;;;2.17;;
40204;SDS011;26963;42.666;23.366;2023-08-08T11:20:08;2.35;;;1.52;;
40204;SDS011;26963;42.666;23.366;2023-08-08T11:22:34;5.38;;;2.50;;
40204;SDS011;26963;42.666;23.366;2023-08-08T11:25:00;5.18;;;2.97;;
40204;SDS011;26963;42.666;23.366;2023-08-08T11:27:28;4.35;;;2.83;;
40204;SDS011;26963;42.666;23.366;2023-08-08T11:29:55;3.10;;;1.92;;
40204;SDS011;26963;42.666;23.366;2023-08-08T11:32:21;2.33;;;1.88;;
40204;SDS011;26963;42.666;23.366;2023-08-08T11:34:47;2.92;;;1.80;;
40204;SDS011;26963;42.666;23.366;2023-08-08T11:37:14;2.50;;;1.65;;
40204;SDS011;26963;42.666;23.366;2023-08-08T11:39:40;6.47;;;2.20;;
40204;SDS011;26963;42.666;23.366;2023-08-08T11:42:07;2.20;;;2.00;;
40204;SDS011;26963;42.666;23.366;2023-08-08T11:44:32;2.35;;;1.75;;
40204;SDS011;26963;42.666;23.366;2023-08-08T11:47:01;2.90;;;1.48;;
40204;SDS011;26963;42.666;23.366;2023-08-08T11:49:27;3.25;;;1.88;;
40204;SDS011;26963;42.666;23.366;2023-08-08T11:51:56;4.05;;;2.05;;
40204;SDS011;26963;42.666;23.366;2023-08-08T11:54:21;6.40;;;5.60;;
40204;SDS011;26963;42.666;23.366;2023-08-08T11:56:47;4.97;;;3.92;;
40204;SDS011;26963;42.666;23.366;2023-08-08T11:59:13;3.28;;;1.92;;
40204;SDS011;26963;42.666;23.366;2023-08-08T12:01:38;2.88;;;2.33;;
40204;SDS011;26963;42.666;23.366;2023-08-08T12:04:04;2.20;;;1.80;;
40204;SDS011;26963;42.666;23.366;2023-08-08T12:06:31;5.25;;;2.92;;
40204;SDS011;26963;42.666;23.366;2023-08-08T12:08:57;1.83;;;1.70;;
40204;SDS011;26963;42.666;23.366;2023-08-08T12:11:23;2.17;;;1.80;;
40204;SDS011;26963;42.666;23.366;2023-08-08T12:13:48;2.05;;;1.80;;
40204;SDS011;26963;42.666;23.366;2023-08-08T12:16:14;2.63;;;1.60;;
40204;SDS011;26963;42.666;23.366;2023-08-08T12:18:40;3.25;;;2.30;;
40204;SDS011;26963;42.666;23.366;2023-08-08T12:21:06;2.22;;;1.90;;
40204;SDS011;26963;42.666;23.366;2023-08-08T12:23:33;4.43;;;2.05;;
40204;SDS011;26963;42.666;23.366;2023-08-08T12:26:02;2.83;;;1.88;;
40204;SDS011;26963;42.666;23.366;2023-08-08T12:28:28;2.13;;;1.60;;
40204;SDS011;26963;42.666;23.366;2023-08-08T12:30:54;4.10;;;2.83;;
40204;SDS011;26963;42.666;23.366;2023-08-08T12:33:20;5.05;;;3.40;;
40204;SDS011;26963;42.666;23.366;2023-08-08T12:35:46;7.55;;;3.22;;
40204;SDS011;26963;42.666;23.366;2023-08-08T12:38:12;5.65;;;3.33;;
40204;SDS011;26963;42.666;23.366;2023-08-08T12:40:39;3.60;;;2.85;;
40204;SDS011;26963;42.666;23.366;2023-08-08T12:43:05;6.70;;;5.88;;
40204;SDS011;26963;42.666;23.366;2023-08-08T12:45:30;3.15;;;2.17;;
40204;SDS011;26963;42.666;23.366;2023-08-08T12:47:56;3.97;;;2.40;;
40204;SDS011;26963;42.666;23.366;2023-08-08T12:50:22;4.60;;;2.70;;
40204;SDS011;26963;42.666;23.366;2023-08-08T12:52:48;4.47;;;3.30;;
40204;SDS011;26963;42.666;23.366;2023-08-08T12:55:14;4.25;;;2.55;;
40204;SDS011;26963;42.666;23.366;2023-08-08T12:57:42;3.30;;;2.50;;
40204;SDS011;26963;42.666;23.366;2023-08-08T13:00:08;2.80;;;2.22;;
40204;SDS011;26963;42.666;23.366;2023-08-08T13:02:34;4.40;;;2.10;;
40204;SDS011;26963;42.666;23.366;2023-08-08T13:05:00;2.63;;;2.03;;
40204;SDS011;26963;42.666;23.366;2023-08-08T13:07:25;2.88;;;2.40;;
40204;SDS011;26963;42.666;23.366;2023-08-08T13:09:51;7.10;;;4.35;;
40204;SDS011;26963;42.666;23.366;2023-08-08T13:12:17;3.65;;;2.90;;
40204;SDS011;26963;42.666;23.366;2023-08-08T13:14:42;3.30;;;2.38;;
40204;SDS011;26963;42.666;23.366;2023-08-08T13:17:08;3.72;;;2.40;;
40204;SDS011;26963;42.666;23.366;2023-08-08T13:19:34;3.50;;;2.00;;
40204;SDS011;26963;42.666;23.366;2023-08-08T13:22:00;2.97;;;2.00;;
40204;SDS011;26963;42.666;23.366;2023-08-08T13:24:26;3.45;;;1.90;;
40204;SDS011;26963;42.666;23.366;2023-08-08T13:26:51;5.28;;;3.83;;
40204;SDS011;26963;42.666;23.366;2023-08-08T13:29:17;3.30;;;2.67;;
40204;SDS011;26963;42.666;23.366;2023-08-08T13:31:43;5.07;;;3.92;;
40204;SDS011;26963;42.666;23.366;2023-08-08T13:34:09;3.53;;;1.70;;
40204;SDS011;26963;42.666;23.366;2023-08-08T13:36:35;6.18;;;2.20;;
40204;SDS011;26963;42.666;23.366;2023-08-08T13:39:00;4.55;;;3.92;;
40204;SDS011;26963;42.666;23.366;2023-08-08T13:41:26;5.78;;;2.25;;
40204;SDS011;26963;42.666;23.366;2023-08-08T13:43:52;7.07;;;2.17;;
40204;SDS011;26963;42.666;23.366;2023-08-08T13:46:17;3.70;;;2.08;;
40204;SDS011;26963;42.666;23.366;2023-08-08T13:48:43;2.95;;;2.03;;
40204;SDS011;26963;42.666;23.366;2023-08-08T13:51:08;3.60;;;2.00;;
40204;SDS011;26963;42.666;23.366;2023-08-08T13:53:34;3.80;;;2.00;;
40204;SDS011;26963;42.666;23.366;2023-08-08T13:55:59;4.75;;;2.60;;
40204;SDS011;26963;42.666;23.366;2023-08-08T13:58:25;2.60;;;2.10;;
40204;SDS011;26963;42.666;23.366;2023-08-08T14:00:51;4.97;;;3.20;;
40204;SDS011;26963;42.666;23.366;2023-08-08T14:03:17;11.73;;;2.95;;
40204;SDS011;26963;42.666;23.366;2023-08-08T14:05:43;4.07;;;1.90;;
40204;SDS011;26963;42.666;23.366;2023-08-08T14:08:09;5.22;;;2.47;;
40204;SDS011;26963;42.666;23.366;2023-08-08T14:10:36;2.92;;;1.48;;
40204;SDS011;26963;42.666;23.366;2023-08-08T14:13:02;7.35;;;3.55;;
40204;SDS011;26963;42.666;23.366;2023-08-08T14:15:28;3.60;;;2.70;;
40204;SDS011;26963;42.666;23.366;2023-08-08T14:17:54;3.00;;;2.40;;
40204;SDS011;26963;42.666;23.366;2023-08-08T14:20:20;5.95;;;1.70;;
40204;SDS011;26963;42.666;23.366;2023-08-08T14:22:46;4.20;;;2.00;;
40204;SDS011;26963;42.666;23.366;2023-08-08T14:25:12;3.05;;;1.80;;
40204;SDS011;26963;42.666;23.366;2023-08-08T14:27:38;2.80;;;1.83;;
40204;SDS011;26963;42.666;23.366;2023-08-08T14:30:04;2.47;;;2.08;;
40204;SDS011;26963;42.666;23.366;2023-08-08T14:32:30;3.00;;;2.13;;
40204;SDS011;26963;42.666;23.366;2023-08-08T14:34:59;3.10;;;2.40;;
40204;SDS011;26963;42.666;23.366;2023-08-08T14:37:24;3.00;;;2.58;;